Orbital elements of COSMOS 1275 DEB
| Launched | 3 June 1981 |
| Flight ended | – |
| Launch site | Plesetsk Missile and Space Complex, Russia |
| Owner | Commonwealth of Independent States (former USSR) |
| NORAD ID | 42155 |
| Date fetched |
Epoch osculation |
Inc. [°] |
Ecc. | RA asc node [hr] |
Arg Peri. [°] |
Mean anom [°] |
Mean motion [rev/day] |
Abs. mag |
| Date fetched |
Epoch osculation |
Inc. [°] |
Ecc. | RA asc node [hr] |
Arg Peri. [°] |
Mean anom [°] |
Mean motion [rev/day] |
Abs. mag |
| 2026 May 01 17:56 | 2026 Apr 28 05:10:33 | 82.9052 | 0.00411 | 19.0665 | 275.5685 | 84.0811 | 14.14012 | – |
| 2026 Apr 30 17:56 | 2026 Apr 28 05:10:33 | 82.9052 | 0.00411 | 19.0665 | 275.5685 | 84.0811 | 14.14012 | – |
| 2026 Apr 29 17:57 | 2026 Apr 19 19:04:37 | 82.9063 | 0.00417 | 19.5129 | 301.9894 | 84.0811 | 14.14012 | – |
| 2026 Apr 28 17:56 | 2026 Apr 19 19:04:37 | 82.9063 | 0.00417 | 19.5129 | 301.9894 | 84.0811 | 14.14012 | – |
| 2026 Apr 27 17:58 | 2026 Apr 19 19:04:37 | 82.9063 | 0.00417 | 19.5129 | 301.9894 | 84.0811 | 14.14012 | – |
| 2026 Apr 26 17:58 | 2026 Apr 19 19:04:37 | 82.9063 | 0.00417 | 19.5129 | 301.9894 | 84.0811 | 14.14012 | – |
| 2026 Apr 25 17:58 | 2026 Apr 19 19:04:37 | 82.9063 | 0.00417 | 19.5129 | 301.9894 | 84.0811 | 14.14012 | – |
| 2026 Apr 24 17:59 | 2026 Apr 19 19:04:37 | 82.9063 | 0.00417 | 19.5129 | 301.9894 | 84.0811 | 14.14012 | – |
| 2026 Apr 23 17:57 | 2026 Apr 14 06:36:24 | 82.9073 | 0.00420 | 19.8055 | 319.0226 | 84.0811 | 14.14012 | – |
| 2026 Apr 22 17:57 | 2026 Apr 14 06:36:24 | 82.9073 | 0.00420 | 19.8055 | 319.0226 | 84.0811 | 14.14012 | – |
| 2026 Apr 21 17:57 | 2026 Apr 14 06:36:24 | 82.9073 | 0.00420 | 19.8055 | 319.0226 | 84.0811 | 14.14012 | – |
| 2026 Apr 20 17:57 | 2026 Apr 14 06:36:24 | 82.9073 | 0.00420 | 19.8055 | 319.0226 | 84.0811 | 14.14012 | – |
| 2026 Apr 19 17:58 | 2026 Apr 14 06:36:24 | 82.9073 | 0.00420 | 19.8055 | 319.0226 | 84.0811 | 14.14012 | – |
| 2026 Apr 18 17:56 | 2026 Apr 10 19:23:16 | 82.9065 | 0.00421 | 19.9891 | 329.6846 | 84.0811 | 14.14012 | – |
| 2026 Apr 16 17:57 | 2026 Apr 10 19:23:16 | 82.9065 | 0.00421 | 19.9891 | 329.6846 | 84.0811 | 14.14012 | – |
| 2026 Apr 14 17:57 | 2026 Apr 10 19:23:16 | 82.9065 | 0.00421 | 19.9891 | 329.6846 | 84.0811 | 14.14012 | – |
| 2026 Apr 13 17:57 | 2026 Apr 10 19:23:16 | 82.9065 | 0.00421 | 19.9891 | 329.6846 | 84.0811 | 14.14012 | – |
| 2026 Apr 12 17:57 | 2026 Apr 02 21:10:11 | 82.9072 | 0.00431 | 20.4090 | 353.1446 | 84.0811 | 14.14012 | – |
| 2026 Apr 11 17:57 | 2026 Apr 02 21:10:11 | 82.9072 | 0.00431 | 20.4090 | 353.1446 | 84.0811 | 14.14012 | – |
| 2026 Apr 10 17:58 | 2026 Apr 02 21:10:11 | 82.9072 | 0.00431 | 20.4090 | 353.1446 | 84.0811 | 14.14012 | – |
| 2026 Apr 09 18:01 | 2026 Apr 02 21:10:11 | 82.9072 | 0.00431 | 20.4090 | 353.1446 | 84.0811 | 14.14012 | – |
| 2026 Apr 08 17:57 | 2026 Apr 02 21:10:11 | 82.9072 | 0.00431 | 20.4090 | 353.1446 | 84.0811 | 14.14012 | – |
| 2026 Apr 07 17:57 | 2026 Apr 02 07:34:57 | 82.9076 | 0.00431 | 20.4390 | 354.7843 | 84.0811 | 14.14012 | – |
| 2026 Apr 06 17:57 | 2026 Apr 02 07:34:57 | 82.9076 | 0.00431 | 20.4390 | 354.7843 | 84.0811 | 14.14012 | – |
| 2026 Apr 05 17:56 | 2026 Apr 02 07:34:57 | 82.9076 | 0.00431 | 20.4390 | 354.7843 | 84.0811 | 14.14012 | – |
| 2026 Apr 04 17:57 | 2026 Apr 02 07:34:57 | 82.9076 | 0.00431 | 20.4390 | 354.7843 | 84.0811 | 14.14012 | – |